createdAt,value
2023-03-02T00:00:44.464Z,26.99
2023-03-02T00:05:51.816Z,26.84
2023-03-02T00:10:59.226Z,26.63
2023-03-02T00:16:06.668Z,26.53
2023-03-02T00:21:13.850Z,26.63
2023-03-02T00:26:21.100Z,26.57
2023-03-02T00:31:28.305Z,26.57
2023-03-02T00:36:35.464Z,26.64
2023-03-02T00:41:42.625Z,26.68
2023-03-02T00:46:49.839Z,26.73
2023-03-02T00:51:57.047Z,26.81
2023-03-02T00:57:04.191Z,26.83
2023-03-02T01:02:11.473Z,26.88
2023-03-02T01:07:18.706Z,26.93
2023-03-02T01:12:25.939Z,26.95
2023-03-02T01:17:33.208Z,27.01
2023-03-02T01:22:40.644Z,27.06
2023-03-02T01:27:56.949Z,27.13
2023-03-02T01:33:04.597Z,27.17
2023-03-02T01:38:13.379Z,27.26
2023-03-02T01:43:21.202Z,27.26
2023-03-02T01:48:28.654Z,27.31
2023-03-02T01:53:36.178Z,27.31
2023-03-02T01:58:43.424Z,27.30
2023-03-02T02:03:50.895Z,27.29
2023-03-02T02:08:58.317Z,27.28
2023-03-02T02:14:05.712Z,27.23
2023-03-02T02:19:13.096Z,27.31
2023-03-02T02:24:20.482Z,27.37
2023-03-02T02:29:27.907Z,27.37
2023-03-02T02:34:35.328Z,27.34
2023-03-02T02:39:42.783Z,27.25
2023-03-02T02:44:50.126Z,27.15
2023-03-02T02:49:57.531Z,27.08
2023-03-02T02:55:05.057Z,27.05
2023-03-02T03:00:12.554Z,27.02
2023-03-02T03:05:19.956Z,27.03
2023-03-02T03:10:27.533Z,27.04
2023-03-02T03:15:34.997Z,27.04
2023-03-02T03:20:42.361Z,27.07
2023-03-02T03:25:49.750Z,27.11
2023-03-02T03:30:57.099Z,27.15
2023-03-02T03:36:04.434Z,27.18
2023-03-02T03:41:11.753Z,27.15
2023-03-02T03:46:19.129Z,27.17
2023-03-02T03:51:26.386Z,27.15
2023-03-02T03:56:34.415Z,27.18
2023-03-02T04:01:41.378Z,27.18
2023-03-02T04:06:48.679Z,27.13
2023-03-02T04:11:56.011Z,27.05
2023-03-02T04:17:03.336Z,26.96
2023-03-02T04:22:10.745Z,26.88
2023-03-02T04:27:18.196Z,26.83
2023-03-02T04:32:25.672Z,26.82
2023-03-02T04:37:33.096Z,26.81
2023-03-02T04:42:40.392Z,26.83
2023-03-02T04:47:47.684Z,26.81
2023-03-02T04:52:54.922Z,26.82
2023-03-02T04:58:02.457Z,26.86
2023-03-02T05:03:09.721Z,26.86
2023-03-02T05:08:17.141Z,26.89
2023-03-02T05:13:24.456Z,26.88
2023-03-02T05:18:31.934Z,26.88
2023-03-02T05:23:39.174Z,26.89
2023-03-02T05:28:46.542Z,26.85
2023-03-02T05:33:53.844Z,26.82
2023-03-02T05:39:01.168Z,26.68
2023-03-02T05:44:08.658Z,26.57
2023-03-02T05:49:15.859Z,26.50
2023-03-02T05:54:23.438Z,26.44
2023-03-02T05:59:30.836Z,26.41
2023-03-02T06:04:38.111Z,26.38
2023-03-02T06:09:45.475Z,26.40
2023-03-02T06:14:52.780Z,26.41
2023-03-02T06:20:00.042Z,26.40
2023-03-02T06:25:07.361Z,26.43
2023-03-02T06:30:14.660Z,26.44
2023-03-02T06:35:22.043Z,26.43
2023-03-02T06:40:29.180Z,26.47
2023-03-02T06:45:36.588Z,26.49
2023-03-02T06:50:43.876Z,26.53
2023-03-02T06:55:51.266Z,26.47
2023-03-02T07:00:58.764Z,26.46
2023-03-02T07:06:06.261Z,26.35
2023-03-02T07:11:13.468Z,26.26
2023-03-02T07:16:20.857Z,26.22
2023-03-02T07:21:28.203Z,26.17
2023-03-02T07:26:35.583Z,26.14
2023-03-02T07:31:43.110Z,26.15
2023-03-02T07:36:50.392Z,26.18
2023-03-02T07:41:57.868Z,26.15
2023-03-02T07:47:05.289Z,26.20
2023-03-02T07:52:12.549Z,26.19
2023-03-02T07:57:20.038Z,26.22
2023-03-02T08:02:27.500Z,26.27
2023-03-02T08:07:34.736Z,26.28
2023-03-02T08:12:42.220Z,26.31
2023-03-02T08:17:49.572Z,26.26
2023-03-02T08:22:56.989Z,26.22
2023-03-02T08:28:04.293Z,26.12
2023-03-02T08:33:11.733Z,26.16
2023-03-02T08:38:19.429Z,26.44
2023-03-02T08:43:26.710Z,26.26
2023-03-02T08:48:34.112Z,26.22
2023-03-02T08:53:41.460Z,26.19
2023-03-02T08:58:48.924Z,26.25
2023-03-02T09:03:56.429Z,27.95
2023-03-02T09:09:03.820Z,28.28
2023-03-02T09:14:11.290Z,27.99
2023-03-02T09:19:18.801Z,27.80
2023-03-02T09:24:26.232Z,27.69
2023-03-02T09:29:33.515Z,27.57
2023-03-02T09:34:40.960Z,27.52
2023-03-02T09:39:48.429Z,27.42
2023-03-02T09:44:55.861Z,27.31
2023-03-02T09:50:03.331Z,27.13
2023-03-02T09:55:10.672Z,26.97
2023-03-02T10:00:20.203Z,26.97
2023-03-02T10:05:25.511Z,26.99
2023-03-02T10:10:32.802Z,26.88
2023-03-02T10:15:40.427Z,26.86
2023-03-02T10:20:47.859Z,26.88
2023-03-02T10:25:55.215Z,26.91
2023-03-02T10:31:05.113Z,26.93
2023-03-02T10:36:09.882Z,26.98
2023-03-02T10:41:17.195Z,27.01
2023-03-02T10:46:24.686Z,27.08
2023-03-02T10:51:32.067Z,27.10
2023-03-02T10:56:39.466Z,27.17
2023-03-02T11:01:46.857Z,27.21
2023-03-02T11:06:54.580Z,27.23
2023-03-02T11:12:02.899Z,27.20
2023-03-02T11:17:10.188Z,27.16
2023-03-02T11:22:17.458Z,27.15
2023-03-02T11:27:24.682Z,27.17
2023-03-02T11:32:32.181Z,27.24
2023-03-02T11:37:42.228Z,27.21
2023-03-02T11:42:49.620Z,27.29
2023-03-02T11:48:02.577Z,27.40
2023-03-02T11:53:04.402Z,27.40
2023-03-02T11:58:11.942Z,27.48
2023-03-02T12:03:19.338Z,27.49
2023-03-02T12:08:26.705Z,27.62
2023-03-02T12:13:34.026Z,27.69
2023-03-02T12:18:41.371Z,27.73
2023-03-02T12:23:48.758Z,27.79
2023-03-02T12:28:57.743Z,27.80
2023-03-02T12:34:03.486Z,27.95
2023-03-02T12:39:11.016Z,27.75
2023-03-02T12:44:19.934Z,27.68
2023-03-02T12:49:27.397Z,27.67
2023-03-02T12:54:34.869Z,27.70
2023-03-02T12:59:43.126Z,27.73
2023-03-02T13:04:50.474Z,27.76
2023-03-02T13:09:58.103Z,27.87
2023-03-02T13:15:05.301Z,27.93
2023-03-02T13:20:12.558Z,27.98
2023-03-02T13:25:19.919Z,28.04
2023-03-02T13:30:27.238Z,28.04
2023-03-02T13:35:34.458Z,28.15
2023-03-02T13:40:41.900Z,28.18
2023-03-02T13:45:49.281Z,28.35
2023-03-02T13:50:56.735Z,28.33
2023-03-02T13:56:04.132Z,28.38
2023-03-02T14:01:11.559Z,28.37
2023-03-02T14:06:18.943Z,28.34
2023-03-02T14:11:26.200Z,28.31
2023-03-02T14:16:33.986Z,28.28
2023-03-02T14:21:43.887Z,28.30
2023-03-02T14:26:48.837Z,28.35
2023-03-02T14:31:56.053Z,28.37
2023-03-02T14:37:03.346Z,28.40
2023-03-02T14:42:10.808Z,28.42
2023-03-02T14:47:18.339Z,28.47
2023-03-02T14:52:25.669Z,28.48
2023-03-02T14:57:33.185Z,28.56
2023-03-02T15:02:40.728Z,28.63
2023-03-02T15:07:48.115Z,28.66
2023-03-02T15:12:55.567Z,28.73
2023-03-02T15:18:02.926Z,28.88
2023-03-02T15:23:10.425Z,28.92
2023-03-02T15:28:17.718Z,28.98
2023-03-02T15:33:25.255Z,28.99
2023-03-02T15:38:32.735Z,28.95
2023-03-02T15:43:40.152Z,28.79
2023-03-02T15:48:47.399Z,28.89
2023-03-02T15:53:54.767Z,28.94
2023-03-02T15:59:05.296Z,29.02
2023-03-02T16:04:12.776Z,28.98
2023-03-02T16:09:20.198Z,29.12
2023-03-02T16:14:27.555Z,29.10
2023-03-02T16:19:34.887Z,29.08
2023-03-02T16:24:42.466Z,29.05
2023-03-02T16:29:50.208Z,29.11
2023-03-02T16:34:57.597Z,29.11
2023-03-02T16:40:04.891Z,29.22
2023-03-02T16:45:12.301Z,29.28
2023-03-02T16:50:19.607Z,29.37
2023-03-02T16:55:26.951Z,29.45
2023-03-02T17:00:34.288Z,29.48
2023-03-02T17:05:47.063Z,29.37
2023-03-02T17:10:54.492Z,29.09
2023-03-02T17:16:01.872Z,29.05
2023-03-02T17:21:09.018Z,29.58
2023-03-02T17:26:16.479Z,30.33
2023-03-02T17:31:23.906Z,31.11
2023-03-02T17:36:31.009Z,30.63
2023-03-02T17:41:38.231Z,30.40
2023-03-02T17:46:45.723Z,30.36
2023-03-02T17:51:52.981Z,30.34
2023-03-02T17:57:00.339Z,30.27
2023-03-02T18:02:08.060Z,30.14
2023-03-02T18:07:15.354Z,29.98
2023-03-02T18:12:22.571Z,29.94
2023-03-02T18:17:29.819Z,29.87
2023-03-02T18:22:37.056Z,29.87
2023-03-02T18:27:44.693Z,29.89
2023-03-02T18:32:52.208Z,30.11
2023-03-02T18:37:59.708Z,29.88
2023-03-02T18:43:07.130Z,29.91
2023-03-02T18:48:14.645Z,29.92
2023-03-02T18:53:22.235Z,29.84
2023-03-02T18:58:32.162Z,29.87
2023-03-02T19:03:37.839Z,30.09
2023-03-02T19:08:45.391Z,29.95
2023-03-02T19:13:52.971Z,29.96
2023-03-02T19:19:00.643Z,30.01
2023-03-02T19:24:08.228Z,30.03
2023-03-02T19:29:15.842Z,29.95
2023-03-02T19:34:23.355Z,29.87
2023-03-02T19:39:31.069Z,29.82
2023-03-02T19:44:38.689Z,29.85
2023-03-02T19:49:46.240Z,29.31
2023-03-02T19:54:53.823Z,29.31
2023-03-02T20:00:01.431Z,28.93
2023-03-02T20:05:09.061Z,28.86
2023-03-02T20:10:16.657Z,28.78
2023-03-02T20:15:24.369Z,28.73
2023-03-02T20:20:32.508Z,28.71
2023-03-02T20:25:39.902Z,29.33
2023-03-02T20:30:47.566Z,28.95
2023-03-02T20:35:55.166Z,29.59
2023-03-02T20:41:02.707Z,29.66
2023-03-02T20:46:10.312Z,29.85
2023-03-02T20:51:17.574Z,29.78
2023-03-02T20:56:25.082Z,29.75
2023-03-02T21:01:32.671Z,29.52
2023-03-02T21:06:39.733Z,29.45
2023-03-02T21:11:47.155Z,29.56
2023-03-02T21:16:54.571Z,29.44
2023-03-02T21:22:01.825Z,29.25
2023-03-02T21:27:09.335Z,29.07
2023-03-02T21:32:17.040Z,29.53
2023-03-02T21:37:24.328Z,29.35
2023-03-02T21:42:31.773Z,29.45
2023-03-02T21:47:39.064Z,29.65
2023-03-02T21:52:46.311Z,29.54
2023-03-02T21:57:53.434Z,29.49
2023-03-02T22:03:00.658Z,29.48
2023-03-02T22:08:07.962Z,29.53
2023-03-02T22:13:15.128Z,29.79
2023-03-02T22:18:22.422Z,29.68
2023-03-02T22:23:29.648Z,29.85
2023-03-02T22:28:36.853Z,29.36
2023-03-02T22:33:44.132Z,29.24
2023-03-02T22:38:51.497Z,29.28
2023-03-02T22:43:58.739Z,29.31
2023-03-02T22:49:06.006Z,29.24
2023-03-02T22:54:13.215Z,29.14
2023-03-02T22:59:20.408Z,29.08
2023-03-02T23:04:27.857Z,29.09
2023-03-02T23:09:35.057Z,29.21
2023-03-02T23:14:42.212Z,29.18
2023-03-02T23:19:49.400Z,29.30
2023-03-02T23:24:56.697Z,29.19
2023-03-02T23:30:04.079Z,29.07
2023-03-02T23:35:11.245Z,29.02
2023-03-02T23:40:18.555Z,28.91
2023-03-02T23:45:26.210Z,28.63
2023-03-02T23:50:33.626Z,28.56
2023-03-02T23:55:41.276Z,28.49
